createdAt,value
2023-03-03T00:01:46.040Z,0.68
2023-03-03T00:04:14.998Z,0.80
2023-03-03T00:06:41.672Z,0.67
2023-03-03T00:09:08.405Z,0.69
2023-03-03T00:11:34.981Z,0.79
2023-03-03T00:14:01.760Z,0.75
2023-03-03T00:16:30.048Z,0.77
2023-03-03T00:19:01.224Z,0.68
2023-03-03T00:21:32.201Z,0.92
2023-03-03T00:24:16.504Z,0.88
2023-03-03T00:26:50.386Z,0.90
2023-03-03T00:29:27.942Z,0.76
2023-03-03T00:31:55.069Z,0.89
2023-03-03T00:34:27.202Z,0.91
2023-03-03T00:36:59.740Z,0.63
2023-03-03T00:39:31.015Z,0.96
2023-03-03T00:41:59.766Z,0.88
2023-03-03T00:44:45.470Z,1.02
2023-03-03T00:47:38.342Z,1.05
2023-03-03T00:50:08.018Z,1.09
2023-03-03T00:52:39.954Z,1.14
2023-03-03T00:55:08.039Z,1.21
2023-03-03T00:57:34.820Z,1.24
2023-03-03T01:00:01.435Z,1.21
2023-03-03T01:02:28.200Z,1.28
2023-03-03T01:04:57.871Z,1.36
2023-03-03T01:07:26.726Z,1.21
2023-03-03T01:09:56.402Z,1.25
2023-03-03T01:12:26.162Z,1.36
2023-03-03T01:14:54.866Z,1.33
2023-03-03T01:17:24.177Z,1.32
2023-03-03T01:19:50.812Z,1.34
2023-03-03T01:22:19.708Z,1.36
2023-03-03T01:24:47.782Z,1.22
2023-03-03T01:27:14.369Z,1.25
2023-03-03T01:29:40.974Z,1.13
2023-03-03T01:32:12.388Z,1.40
2023-03-03T01:34:39.025Z,1.22
2023-03-03T01:37:08.294Z,1.30
2023-03-03T01:39:36.324Z,1.37
2023-03-03T01:42:06.137Z,0.41
2023-03-03T01:44:34.460Z,1.21
2023-03-03T01:47:06.244Z,1.35
2023-03-03T01:49:39.443Z,1.31
2023-03-03T01:52:14.917Z,0.82
2023-03-03T01:54:50.656Z,1.26
2023-03-03T01:57:25.421Z,1.14
2023-03-03T01:59:53.693Z,1.21
2023-03-03T02:02:23.028Z,1.20
2023-03-03T02:04:50.463Z,1.14
2023-03-03T02:07:24.402Z,1.15
2023-03-03T02:09:59.817Z,1.15
2023-03-03T02:12:33.736Z,1.13
2023-03-03T02:15:02.697Z,1.17
2023-03-03T02:17:29.383Z,1.14
2023-03-03T02:20:12.717Z,1.12
2023-03-03T02:22:55.481Z,0.86
2023-03-03T02:26:11.515Z,0.92
2023-03-03T02:28:39.539Z,1.09
2023-03-03T02:31:13.683Z,0.89
2023-03-03T02:33:45.333Z,1.06
2023-03-03T02:36:21.513Z,1.13
2023-03-03T02:39:16.233Z,1.00
2023-03-03T02:42:12.172Z,1.20
2023-03-03T02:44:39.173Z,1.19
2023-03-03T02:47:05.853Z,1.19
2023-03-03T02:49:36.679Z,0.91
2023-03-03T02:52:05.884Z,1.24
2023-03-03T02:54:33.279Z,0.97
2023-03-03T02:57:03.840Z,0.93
2023-03-03T02:59:30.681Z,0.90
2023-03-03T03:02:00.208Z,1.21
2023-03-03T03:04:29.423Z,1.20
2023-03-03T03:06:56.896Z,1.21
2023-03-03T03:09:25.435Z,1.18
2023-03-03T03:11:52.607Z,1.08
2023-03-03T03:14:19.313Z,1.03
2023-03-03T03:16:46.012Z,1.07
2023-03-03T03:19:13.024Z,1.12
2023-03-03T03:21:39.674Z,0.92
2023-03-03T03:24:06.859Z,0.98
2023-03-03T03:26:33.504Z,0.84
2023-03-03T03:29:02.289Z,1.01
2023-03-03T03:31:28.984Z,1.00
2023-03-03T03:33:55.648Z,0.96
2023-03-03T03:36:22.422Z,0.93
2023-03-03T03:38:49.092Z,1.12
2023-03-03T03:41:15.777Z,1.13
2023-03-03T03:43:42.481Z,1.14
2023-03-03T03:46:11.731Z,1.14
2023-03-03T03:48:38.438Z,1.09
2023-03-03T03:51:05.386Z,0.94
2023-03-03T03:53:32.449Z,1.06
2023-03-03T03:55:59.207Z,1.01
2023-03-03T03:58:26.218Z,1.14
2023-03-03T04:00:52.989Z,1.15
2023-03-03T04:03:20.320Z,1.03
2023-03-03T04:05:51.118Z,1.15
2023-03-03T04:08:17.706Z,1.14
2023-03-03T04:10:44.327Z,0.77
2023-03-03T04:13:13.370Z,0.46
2023-03-03T04:15:40.003Z,1.16
2023-03-03T04:18:09.277Z,1.25
2023-03-03T04:20:38.032Z,1.23
2023-03-03T04:23:04.590Z,1.06
2023-03-03T04:25:33.453Z,0.78
2023-03-03T04:28:00.191Z,1.36
2023-03-03T04:30:29.163Z,1.25
2023-03-03T04:32:55.833Z,1.36
2023-03-03T04:35:22.626Z,1.21
2023-03-03T04:37:49.272Z,1.37
2023-03-03T04:40:17.351Z,1.23
2023-03-03T04:42:44.084Z,1.27
2023-03-03T04:45:11.299Z,1.32
2023-03-03T04:47:38.209Z,1.28
2023-03-03T04:50:05.296Z,1.35
2023-03-03T04:52:31.964Z,1.40
2023-03-03T04:54:58.789Z,1.25
2023-03-03T04:57:25.568Z,1.30
2023-03-03T04:59:52.180Z,1.40
2023-03-03T05:02:21.485Z,1.36
2023-03-03T05:04:53.223Z,1.34
2023-03-03T05:07:20.959Z,1.33
2023-03-03T05:09:47.638Z,1.25
2023-03-03T05:12:17.359Z,1.36
2023-03-03T05:14:46.401Z,1.18
2023-03-03T05:17:13.035Z,1.37
2023-03-03T05:19:39.796Z,0.93
2023-03-03T05:22:06.662Z,1.23
2023-03-03T05:24:33.334Z,1.28
2023-03-03T05:26:59.959Z,1.20
2023-03-03T05:29:27.150Z,1.34
2023-03-03T05:31:53.710Z,1.40
2023-03-03T05:34:20.333Z,1.42
2023-03-03T05:36:49.074Z,-0.61
2023-03-03T05:39:16.037Z,1.44
2023-03-03T05:41:42.640Z,1.28
2023-03-03T05:44:11.655Z,1.48
2023-03-03T05:46:40.805Z,1.50
2023-03-03T05:49:07.433Z,1.25
2023-03-03T05:51:36.515Z,1.51
2023-03-03T05:54:03.198Z,1.41
2023-03-03T05:56:32.143Z,1.52
2023-03-03T05:58:58.694Z,1.56
2023-03-03T06:01:25.428Z,1.59
2023-03-03T06:03:54.406Z,1.48
2023-03-03T06:06:21.020Z,1.66
2023-03-03T06:08:50.248Z,1.66
2023-03-03T06:11:19.521Z,1.55
2023-03-03T06:13:46.314Z,1.63
2023-03-03T06:16:15.413Z,1.69
2023-03-03T06:18:42.093Z,1.57
2023-03-03T06:21:08.653Z,1.67
2023-03-03T06:23:35.343Z,1.45
2023-03-03T06:26:02.068Z,1.64
2023-03-03T06:28:28.730Z,1.64
2023-03-03T06:30:56.491Z,1.66
2023-03-03T06:33:25.621Z,0.28
2023-03-03T06:35:56.196Z,1.63
2023-03-03T06:38:22.973Z,1.36
2023-03-03T06:40:49.676Z,1.36
2023-03-03T06:43:16.489Z,1.67
2023-03-03T06:45:49.190Z,1.70
2023-03-03T06:48:15.867Z,1.51
2023-03-03T06:50:42.604Z,1.63
2023-03-03T06:53:18.137Z,1.73
2023-03-03T06:55:45.910Z,1.79
2023-03-03T06:58:19.297Z,1.79
2023-03-03T07:01:00.336Z,1.85
2023-03-03T07:04:06.515Z,1.82
2023-03-03T07:06:40.926Z,1.88
2023-03-03T07:09:38.875Z,1.90
2023-03-03T07:12:20.167Z,1.89
2023-03-03T07:14:55.395Z,1.88
2023-03-03T07:17:25.318Z,1.77
2023-03-03T07:19:52.953Z,1.86
2023-03-03T07:22:25.897Z,0.56
2023-03-03T07:25:00.750Z,1.92
2023-03-03T07:27:32.946Z,1.92
2023-03-03T07:30:25.168Z,1.91
2023-03-03T07:32:57.536Z,1.94
2023-03-03T07:35:43.695Z,1.95
2023-03-03T07:38:31.029Z,1.90
2023-03-03T07:41:17.522Z,1.97
2023-03-03T07:43:50.931Z,1.91
2023-03-03T07:46:25.644Z,1.98
2023-03-03T07:48:52.821Z,2.03
2023-03-03T07:51:28.249Z,2.02
2023-03-03T07:54:29.149Z,2.03
2023-03-03T07:57:04.622Z,2.05
2023-03-03T07:59:37.113Z,2.11
2023-03-03T08:02:13.822Z,1.54
2023-03-03T08:04:54.867Z,2.15
2023-03-03T08:07:23.732Z,2.19
2023-03-03T08:09:54.694Z,2.23
2023-03-03T08:12:42.910Z,2.24
2023-03-03T08:15:19.407Z,2.48
2023-03-03T08:17:47.466Z,2.39
2023-03-03T08:20:29.245Z,2.47
2023-03-03T08:22:55.951Z,2.34
2023-03-03T08:25:24.827Z,2.31
2023-03-03T08:27:51.502Z,2.51
2023-03-03T08:30:20.340Z,2.55
2023-03-03T08:32:46.955Z,2.52
2023-03-03T08:35:13.635Z,2.45
2023-03-03T08:37:44.713Z,2.50
2023-03-03T08:40:15.419Z,2.54
2023-03-03T08:42:42.054Z,2.66
2023-03-03T08:45:08.995Z,2.64
2023-03-03T08:47:35.732Z,2.66
2023-03-03T08:50:07.425Z,2.62
2023-03-03T08:52:34.445Z,2.64
2023-03-03T08:55:01.037Z,2.74
2023-03-03T08:57:27.920Z,2.81
2023-03-03T08:59:54.464Z,2.79
2023-03-03T09:02:21.067Z,2.57
2023-03-03T09:04:47.626Z,2.80
2023-03-03T09:07:16.723Z,2.83
2023-03-03T09:09:43.335Z,2.82
2023-03-03T09:12:19.606Z,2.85
2023-03-03T09:14:47.397Z,2.95
2023-03-03T09:17:35.709Z,3.03
2023-03-03T09:20:22.543Z,3.11
2023-03-03T09:22:50.406Z,3.11
2023-03-03T09:25:43.173Z,3.33
2023-03-03T09:28:24.582Z,3.35
2023-03-03T09:30:54.556Z,3.37
2023-03-03T09:33:39.983Z,3.44
2023-03-03T09:36:31.579Z,3.22
2023-03-03T09:39:00.081Z,3.25
2023-03-03T09:41:41.557Z,3.37
2023-03-03T09:44:12.186Z,3.33
2023-03-03T09:46:50.727Z,3.38
2023-03-03T09:49:43.712Z,3.46
2023-03-03T09:52:22.612Z,3.49
2023-03-03T09:55:15.498Z,3.62
2023-03-03T09:58:13.594Z,3.85
2023-03-03T10:01:10.792Z,3.91
2023-03-03T10:04:00.631Z,3.94
2023-03-03T10:06:55.094Z,3.96
2023-03-03T10:09:33.859Z,4.02
2023-03-03T10:12:38.835Z,4.05
2023-03-03T10:15:25.576Z,4.16
2023-03-03T10:17:56.485Z,4.19
2023-03-03T10:20:57.258Z,4.38
2023-03-03T10:23:35.676Z,4.39
2023-03-03T10:26:16.492Z,4.61
2023-03-03T10:29:22.061Z,4.73
2023-03-03T10:31:57.703Z,4.78
2023-03-03T10:34:27.411Z,4.76
2023-03-03T10:37:18.113Z,4.81
2023-03-03T10:39:57.415Z,4.89
2023-03-03T10:42:36.179Z,5.18
2023-03-03T10:45:30.400Z,5.41
2023-03-03T10:48:12.255Z,5.64
2023-03-03T10:50:50.540Z,5.68
2023-03-03T10:53:55.917Z,5.77
2023-03-03T10:56:52.420Z,5.61
2023-03-03T10:59:31.692Z,5.86
2023-03-03T11:02:02.150Z,6.01
2023-03-03T11:04:53.688Z,6.06
2023-03-03T11:07:40.698Z,6.37
2023-03-03T11:10:14.730Z,6.57
2023-03-03T11:13:25.699Z,6.61
2023-03-03T11:16:18.252Z,6.73
2023-03-03T11:19:02.608Z,6.79
2023-03-03T11:21:47.046Z,6.75
2023-03-03T11:24:38.158Z,6.94
2023-03-03T11:27:40.009Z,6.92
2023-03-03T11:30:12.307Z,7.10
2023-03-03T11:32:56.736Z,7.17
2023-03-03T11:35:36.811Z,7.12
2023-03-03T11:38:12.346Z,7.37
2023-03-03T11:41:03.031Z,7.59
2023-03-03T11:43:38.072Z,7.88
2023-03-03T11:46:11.961Z,7.95
2023-03-03T11:48:42.406Z,7.84
2023-03-03T11:51:19.774Z,7.85
2023-03-03T11:54:11.151Z,7.76
2023-03-03T11:56:44.560Z,7.12
2023-03-03T11:59:20.660Z,7.61
2023-03-03T12:01:55.184Z,7.55
2023-03-03T12:04:32.189Z,7.57
2023-03-03T12:07:22.751Z,7.38
2023-03-03T12:10:09.321Z,7.20
2023-03-03T12:13:02.125Z,7.42
2023-03-03T12:15:51.568Z,7.72
2023-03-03T12:18:28.079Z,7.51
2023-03-03T12:20:56.902Z,8.03
2023-03-03T12:24:00.687Z,8.01
2023-03-03T12:26:39.833Z,7.67
2023-03-03T12:29:38.755Z,8.14
2023-03-03T12:32:21.542Z,8.13
2023-03-03T12:34:59.896Z,8.18
2023-03-03T12:37:36.096Z,8.13
2023-03-03T12:40:07.525Z,8.06
2023-03-03T12:42:46.085Z,8.29
2023-03-03T12:45:36.019Z,8.38
2023-03-03T12:48:27.645Z,8.55
2023-03-03T12:51:14.533Z,8.73
2023-03-03T12:53:53.243Z,8.70
2023-03-03T12:56:46.279Z,8.55
2023-03-03T12:59:50.968Z,8.66
2023-03-03T13:02:35.145Z,8.77
2023-03-03T13:05:43.517Z,8.59
2023-03-03T13:08:31.391Z,8.35
2023-03-03T13:11:16.382Z,8.40
2023-03-03T13:13:55.811Z,8.70
2023-03-03T13:16:40.632Z,8.92
2023-03-03T13:19:46.082Z,8.76
2023-03-03T13:22:43.433Z,9.19
2023-03-03T13:25:28.735Z,8.92
2023-03-03T13:28:04.057Z,8.87
2023-03-03T13:30:35.508Z,8.68
2023-03-03T13:33:11.166Z,8.88
2023-03-03T13:35:59.295Z,9.22
2023-03-03T13:38:33.640Z,9.30
2023-03-03T13:41:09.931Z,8.58
2023-03-03T13:43:48.366Z,9.14
2023-03-03T13:46:51.600Z,8.98
2023-03-03T13:49:27.258Z,8.90
2023-03-03T13:52:07.391Z,8.83
2023-03-03T13:54:55.801Z,8.75
2023-03-03T13:57:41.675Z,8.81
2023-03-03T14:00:33.199Z,8.85
2023-03-03T14:03:05.758Z,8.80
2023-03-03T14:05:45.292Z,8.70
2023-03-03T14:08:20.432Z,8.66
2023-03-03T14:11:11.827Z,8.58
2023-03-03T14:13:50.977Z,8.86
2023-03-03T14:16:40.775Z,8.97
2023-03-03T14:19:43.255Z,9.07
2023-03-03T14:22:15.898Z,9.04
2023-03-03T14:25:01.256Z,8.80
2023-03-03T14:27:35.489Z,8.56
2023-03-03T14:30:35.208Z,8.52
2023-03-03T14:33:09.545Z,8.59
2023-03-03T14:35:40.802Z,8.63
2023-03-03T14:38:10.327Z,8.70
2023-03-03T14:40:39.303Z,8.92
2023-03-03T14:43:21.904Z,9.06
2023-03-03T14:45:48.740Z,9.11
2023-03-03T14:48:18.262Z,9.05
2023-03-03T14:51:04.694Z,8.93
2023-03-03T14:53:39.138Z,8.83
2023-03-03T14:56:28.807Z,8.90
2023-03-03T14:59:16.697Z,8.84
2023-03-03T15:01:43.570Z,8.86
2023-03-03T15:04:16.271Z,8.92
2023-03-03T15:06:48.939Z,8.86
2023-03-03T15:09:26.913Z,8.77
2023-03-03T15:11:55.611Z,8.69
2023-03-03T15:14:45.547Z,8.54
2023-03-03T15:17:26.702Z,8.50
2023-03-03T15:20:18.109Z,8.63
2023-03-03T15:23:19.617Z,8.66
2023-03-03T15:25:54.590Z,9.03
2023-03-03T15:28:47.446Z,9.12
2023-03-03T15:31:32.900Z,9.40
2023-03-03T15:34:25.167Z,9.56
2023-03-03T15:37:05.423Z,9.55
2023-03-03T15:39:50.739Z,9.42
2023-03-03T15:42:35.957Z,9.30
2023-03-03T15:45:08.693Z,9.17
2023-03-03T15:48:05.227Z,9.20
2023-03-03T15:50:45.587Z,9.16
2023-03-03T15:53:39.517Z,9.07
2023-03-03T15:56:24.101Z,9.01
2023-03-03T15:59:29.521Z,8.90
2023-03-03T16:02:11.253Z,8.86
2023-03-03T16:04:45.910Z,8.72
2023-03-03T16:07:34.386Z,8.30
2023-03-03T16:10:19.561Z,8.63
2023-03-03T16:13:12.823Z,8.52
2023-03-03T16:16:00.637Z,8.42
2023-03-03T16:18:36.373Z,8.35
2023-03-03T16:21:48.090Z,8.17
2023-03-03T16:24:26.926Z,8.06
2023-03-03T16:27:09.917Z,8.13
2023-03-03T16:30:06.063Z,8.01
2023-03-03T16:32:44.293Z,7.87
2023-03-03T16:35:17.791Z,7.87
2023-03-03T16:37:57.266Z,7.82
2023-03-03T16:40:33.188Z,7.73
2023-03-03T16:43:03.689Z,7.70
2023-03-03T16:45:39.292Z,7.64
2023-03-03T16:48:15.134Z,7.61
2023-03-03T16:51:05.824Z,7.56
2023-03-03T16:53:32.430Z,7.51
2023-03-03T16:56:01.973Z,7.48
2023-03-03T16:58:43.809Z,7.41
2023-03-03T17:01:22.806Z,7.36
2023-03-03T17:03:59.839Z,7.31
2023-03-03T17:06:41.387Z,7.27
2023-03-03T17:09:07.910Z,7.25
2023-03-03T17:12:18.929Z,7.23
2023-03-03T17:15:03.742Z,7.22
2023-03-03T17:17:55.373Z,7.22
2023-03-03T17:20:33.666Z,7.11
2023-03-03T17:23:03.096Z,7.14
2023-03-03T17:25:58.839Z,7.08
2023-03-03T17:28:48.506Z,7.00
2023-03-03T17:31:33.490Z,6.94
2023-03-03T17:34:38.500Z,6.86
2023-03-03T17:37:13.054Z,6.83
2023-03-03T17:39:56.458Z,6.75
2023-03-03T17:42:47.699Z,6.75
2023-03-03T17:45:16.415Z,6.73
2023-03-03T17:48:07.980Z,6.70
2023-03-03T17:50:37.510Z,6.68
2023-03-03T17:53:30.155Z,6.65
2023-03-03T17:56:27.534Z,6.65
2023-03-03T17:59:03.236Z,6.65
2023-03-03T18:01:40.844Z,6.64
2023-03-03T18:04:27.634Z,6.59
2023-03-03T18:07:16.893Z,6.56
2023-03-03T18:10:12.751Z,6.55
2023-03-03T18:12:59.324Z,6.51
2023-03-03T18:16:01.833Z,6.38
2023-03-03T18:19:03.685Z,6.49
2023-03-03T18:21:48.393Z,6.46
2023-03-03T18:24:38.402Z,6.22
2023-03-03T18:27:16.553Z,6.38
2023-03-03T18:30:18.564Z,6.37
2023-03-03T18:33:01.271Z,6.38
2023-03-03T18:35:31.329Z,6.37
2023-03-03T18:37:58.078Z,6.11
2023-03-03T18:40:34.912Z,6.37
2023-03-03T18:43:39.953Z,6.37
2023-03-03T18:46:29.304Z,6.35
2023-03-03T18:49:04.948Z,6.38
2023-03-03T18:51:34.333Z,6.37
2023-03-03T18:54:26.371Z,6.23
2023-03-03T18:56:52.862Z,6.37
2023-03-03T18:59:31.726Z,6.39
2023-03-03T19:02:13.794Z,6.37
2023-03-03T19:05:08.866Z,6.38
2023-03-03T19:07:59.928Z,6.38
2023-03-03T19:10:52.498Z,6.39
2023-03-03T19:13:34.174Z,6.39
2023-03-03T19:16:22.445Z,6.40
2023-03-03T19:18:59.715Z,6.30
2023-03-03T19:21:38.263Z,6.42
2023-03-03T19:24:25.877Z,6.43
2023-03-03T19:27:01.597Z,6.43
2023-03-03T19:29:46.376Z,6.42
2023-03-03T19:32:16.156Z,6.42
2023-03-03T19:34:58.071Z,6.42
2023-03-03T19:37:44.445Z,6.22
2023-03-03T19:40:39.002Z,6.41
2023-03-03T19:43:20.766Z,6.39
2023-03-03T19:46:15.352Z,6.36
2023-03-03T19:48:54.726Z,6.36
2023-03-03T19:51:40.688Z,5.87
2023-03-03T19:54:35.236Z,6.31
2023-03-03T19:57:05.841Z,6.30
2023-03-03T20:00:17.555Z,6.28
2023-03-03T20:03:05.755Z,6.28
2023-03-03T20:06:05.450Z,6.06
2023-03-03T20:08:41.397Z,6.09
2023-03-03T20:11:20.288Z,6.19
2023-03-03T20:14:19.330Z,6.22
2023-03-03T20:16:48.282Z,6.17
2023-03-03T20:19:45.816Z,6.18
2023-03-03T20:22:28.199Z,6.16
2023-03-03T20:25:25.212Z,6.15
2023-03-03T20:28:00.681Z,6.13
2023-03-03T20:31:14.773Z,6.10
2023-03-03T20:33:44.155Z,6.11
2023-03-03T20:36:31.310Z,6.02
2023-03-03T20:39:21.120Z,6.08
2023-03-03T20:42:31.833Z,6.07
2023-03-03T20:45:06.777Z,6.07
2023-03-03T20:48:07.211Z,6.07
2023-03-03T20:50:52.525Z,6.06
2023-03-03T20:53:57.288Z,5.86
2023-03-03T20:56:51.622Z,6.05
2023-03-03T20:59:25.631Z,6.05
2023-03-03T21:02:29.888Z,6.04
2023-03-03T21:05:14.247Z,6.04
2023-03-03T21:07:55.022Z,5.84
2023-03-03T21:10:26.993Z,5.61
2023-03-03T21:12:59.121Z,6.05
2023-03-03T21:15:27.453Z,6.02
2023-03-03T21:17:55.326Z,5.99
2023-03-03T21:20:33.657Z,6.04
2023-03-03T21:23:01.956Z,6.04
2023-03-03T21:25:40.912Z,6.04
2023-03-03T21:28:24.702Z,6.05
2023-03-03T21:31:10.775Z,6.07
2023-03-03T21:34:01.647Z,6.07
2023-03-03T21:36:37.181Z,6.06
2023-03-03T21:39:23.305Z,6.06
2023-03-03T21:41:55.451Z,5.96
2023-03-03T21:44:34.833Z,6.06
2023-03-03T21:47:02.382Z,5.99
2023-03-03T21:49:29.237Z,6.07
2023-03-03T21:51:57.004Z,6.08
2023-03-03T21:54:24.382Z,5.42
2023-03-03T21:56:51.546Z,6.10
2023-03-03T21:59:20.763Z,6.05
2023-03-03T22:01:47.414Z,6.12
2023-03-03T22:04:16.674Z,5.77
2023-03-03T22:06:45.958Z,6.13
2023-03-03T22:09:15.610Z,6.01
2023-03-03T22:11:42.312Z,6.12
2023-03-03T22:14:11.328Z,6.00
2023-03-03T22:16:40.182Z,5.97
2023-03-03T22:19:09.213Z,5.97
2023-03-03T22:21:36.681Z,6.01
2023-03-03T22:24:03.849Z,6.03
2023-03-03T22:26:30.472Z,6.13
2023-03-03T22:28:59.651Z,6.16
2023-03-03T22:31:26.417Z,6.07
2023-03-03T22:33:53.112Z,5.92
2023-03-03T22:36:22.202Z,6.14
2023-03-03T22:38:51.795Z,6.14
2023-03-03T22:41:18.805Z,6.16
2023-03-03T22:43:45.743Z,6.13
2023-03-03T22:46:12.623Z,6.10
2023-03-03T22:48:41.237Z,6.16
2023-03-03T22:51:07.854Z,6.15
2023-03-03T22:53:36.776Z,6.15
2023-03-03T22:56:03.586Z,5.86
2023-03-03T22:58:30.966Z,6.16
2023-03-03T23:00:57.721Z,5.98
2023-03-03T23:03:25.168Z,6.16
2023-03-03T23:05:52.248Z,6.07
2023-03-03T23:08:20.262Z,6.12
2023-03-03T23:10:47.106Z,6.02
2023-03-03T23:13:14.383Z,6.20
2023-03-03T23:15:41.065Z,6.20
2023-03-03T23:18:07.879Z,5.81
2023-03-03T23:20:34.816Z,6.20
2023-03-03T23:23:01.518Z,6.20
2023-03-03T23:25:28.924Z,6.10
2023-03-03T23:27:56.375Z,6.20
2023-03-03T23:30:23.644Z,6.20
2023-03-03T23:32:50.982Z,6.20
2023-03-03T23:35:17.709Z,6.13
2023-03-03T23:37:45.056Z,6.13
2023-03-03T23:40:12.844Z,6.08
2023-03-03T23:42:39.598Z,6.20
2023-03-03T23:45:06.913Z,6.00
2023-03-03T23:47:35.636Z,6.19
2023-03-03T23:50:02.310Z,6.20
2023-03-03T23:52:30.933Z,6.07
2023-03-03T23:54:57.604Z,5.94
2023-03-03T23:57:24.182Z,6.18
2023-03-03T23:59:50.871Z,6.18
